sensor_id;sensor_type;location;lat;lon;timestamp;pressure;altitude;pressure_sealevel;temperature;humidity
56174;BME280;42058;52.308;20.924;2022-07-01T00:00:23;100353.13;;;24.22;89.94
56174;BME280;42058;52.308;20.924;2022-07-01T00:02:50;100357.45;;;24.19;89.42
56174;BME280;42058;52.308;20.924;2022-07-01T00:05:17;100358.41;;;24.18;89.73
56174;BME280;42058;52.308;20.924;2022-07-01T00:07:46;100358.91;;;24.17;89.79
56174;BME280;42058;52.308;20.924;2022-07-01T00:10:13;100353.54;;;24.17;89.94
56174;BME280;42058;52.308;20.924;2022-07-01T00:12:39;100353.41;;;24.19;90.12
56174;BME280;42058;52.308;20.924;2022-07-01T00:15:06;100355.23;;;24.18;90.73
56174;BME280;42058;52.308;20.924;2022-07-01T00:17:33;100355.98;;;24.21;91.34
56174;BME280;42058;52.308;20.924;2022-07-01T00:19:59;100356.82;;;24.21;91.82
56174;BME280;42058;52.308;20.924;2022-07-01T00:22:25;100362.54;;;24.22;91.94
56174;BME280;42058;52.308;20.924;2022-07-01T00:24:54;100358.51;;;24.22;92.09
56174;BME280;42058;52.308;20.924;2022-07-01T00:27:20;100360.60;;;24.24;92.55
56174;BME280;42058;52.308;20.924;2022-07-01T00:29:47;100359.26;;;24.24;92.67
56174;BME280;42058;52.308;20.924;2022-07-01T00:32:13;100361.95;;;24.24;93.08
56174;BME280;42058;52.308;20.924;2022-07-01T00:34:39;100358.25;;;24.25;93.08
56174;BME280;42058;52.308;20.924;2022-07-01T00:37:05;100362.04;;;24.28;94.01
56174;BME280;42058;52.308;20.924;2022-07-01T00:39:32;100359.69;;;24.29;94.31
56174;BME280;42058;52.308;20.924;2022-07-01T00:42:00;100364.81;;;24.32;94.69
56174;BME280;42058;52.308;20.924;2022-07-01T00:44:28;100364.81;;;24.32;95.70
56174;BME280;42058;52.308;20.924;2022-07-01T00:46:54;100365.53;;;24.34;95.80
56174;BME280;42058;52.308;20.924;2022-07-01T00:49:21;100362.84;;;24.34;95.95
56174;BME280;42058;52.308;20.924;2022-07-01T00:51:48;100364.69;;;24.34;95.85
56174;BME280;42058;52.308;20.924;2022-07-01T00:54:14;100366.54;;;24.33;95.90
56174;BME280;42058;52.308;20.924;2022-07-01T00:56:41;100371.92;;;24.33;96.56
56174;BME280;42058;52.308;20.924;2022-07-01T00:59:07;100364.48;;;24.31;96.91
56174;BME280;42058;52.308;20.924;2022-07-01T01:01:33;100373.02;;;24.31;97.85
56174;BME280;42058;52.308;20.924;2022-07-01T01:04:00;100378.52;;;24.29;98.08
56174;BME280;42058;52.308;20.924;2022-07-01T01:06:26;100378.17;;;24.28;98.39
56174;BME280;42058;52.308;20.924;2022-07-01T01:08:53;100395.03;;;24.30;98.99
56174;BME280;42058;52.308;20.924;2022-07-01T01:11:20;100422.42;;;24.30;99.73
56174;BME280;42058;52.308;20.924;2022-07-01T01:13:46;100433.92;;;24.26;99.33
56174;BME280;42058;52.308;20.924;2022-07-01T01:16:17;100431.36;;;24.25;98.77
56174;BME280;42058;52.308;20.924;2022-07-01T01:18:47;100437.36;;;24.23;98.40
56174;BME280;42058;52.308;20.924;2022-07-01T01:21:15;100438.83;;;24.21;99.10
56174;BME280;42058;52.308;20.924;2022-07-01T01:23:41;100437.10;;;24.20;98.43
56174;BME280;42058;52.308;20.924;2022-07-01T01:26:21;100447.64;;;24.17;98.27
56174;BME280;42058;52.308;20.924;2022-07-01T01:28:44;100448.00;;;24.13;98.85
56174;BME280;42058;52.308;20.924;2022-07-01T01:31:10;100469.41;;;24.09;97.29
56174;BME280;42058;52.308;20.924;2022-07-01T01:33:38;100457.22;;;24.05;96.85
56174;BME280;42058;52.308;20.924;2022-07-01T01:36:05;100466.52;;;24.01;95.29
56174;BME280;42058;52.308;20.924;2022-07-01T01:38:36;100460.05;;;23.97;95.56
56174;BME280;42058;52.308;20.924;2022-07-01T01:41:03;100462.97;;;23.94;94.76
56174;BME280;42058;52.308;20.924;2022-07-01T01:43:30;100465.94;;;23.91;94.73
56174;BME280;42058;52.308;20.924;2022-07-01T01:45:59;100464.45;;;23.87;95.01
56174;BME280;42058;52.308;20.924;2022-07-01T01:48:27;100480.86;;;23.84;94.93
56174;BME280;42058;52.308;20.924;2022-07-01T01:50:54;100483.78;;;23.81;94.67
56174;BME280;42058;52.308;20.924;2022-07-01T01:53:20;100473.73;;;23.77;95.22
56174;BME280;42058;52.308;20.924;2022-07-01T01:55:47;100483.50;;;23.73;94.63
56174;BME280;42058;52.308;20.924;2022-07-01T01:58:13;100485.46;;;23.71;95.13
56174;BME280;42058;52.308;20.924;2022-07-01T02:00:39;100481.32;;;23.67;95.09
56174;BME280;42058;52.308;20.924;2022-07-01T02:03:05;100486.81;;;23.65;95.87
56174;BME280;42058;52.308;20.924;2022-07-01T02:05:31;100475.11;;;23.60;95.55
56174;BME280;42058;52.308;20.924;2022-07-01T02:07:59;100484.25;;;23.58;95.21
56174;BME280;42058;52.308;20.924;2022-07-01T02:10:25;100492.43;;;23.56;95.91
56174;BME280;42058;52.308;20.924;2022-07-01T02:12:51;100495.50;;;23.52;96.43
56174;BME280;42058;52.308;20.924;2022-07-01T02:15:17;100495.00;;;23.52;97.02
56174;BME280;42058;52.308;20.924;2022-07-01T02:17:43;100473.17;;;23.51;96.87
56174;BME280;42058;52.308;20.924;2022-07-01T02:20:10;100470.60;;;23.50;96.82
56174;BME280;42058;52.308;20.924;2022-07-01T02:22:38;100461.70;;;23.49;96.84
56174;BME280;42058;52.308;20.924;2022-07-01T02:25:04;100459.25;;;23.46;96.57
56174;BME280;42058;52.308;20.924;2022-07-01T02:27:31;100481.34;;;23.44;97.57
56174;BME280;42058;52.308;20.924;2022-07-01T02:29:58;100488.68;;;23.42;98.04
56174;BME280;42058;52.308;20.924;2022-07-01T02:32:24;100485.23;;;23.40;98.23
56174;BME280;42058;52.308;20.924;2022-07-01T02:34:50;100476.83;;;23.39;98.41
56174;BME280;42058;52.308;20.924;2022-07-01T02:37:17;100471.34;;;23.35;98.16
56174;BME280;42058;52.308;20.924;2022-07-01T02:39:44;100457.54;;;23.34;98.22
56174;BME280;42058;52.308;20.924;2022-07-01T02:42:12;100453.02;;;23.29;98.01
56174;BME280;42058;52.308;20.924;2022-07-01T02:44:55;100463.03;;;23.27;98.33
56174;BME280;42058;52.308;20.924;2022-07-01T02:47:22;100486.08;;;23.23;99.51
56174;BME280;42058;52.308;20.924;2022-07-01T02:49:49;100479.25;;;23.19;99.92
56174;BME280;42058;52.308;20.924;2022-07-01T02:52:17;100475.84;;;23.17;100.00
56174;BME280;42058;52.308;20.924;2022-07-01T02:54:43;100474.99;;;23.17;100.00
56174;BME280;42058;52.308;20.924;2022-07-01T02:57:09;100476.34;;;23.17;100.00
56174;BME280;42058;52.308;20.924;2022-07-01T02:59:36;100478.52;;;23.17;100.00
56174;BME280;42058;52.308;20.924;2022-07-01T03:02:02;100492.56;;;23.15;100.00
56174;BME280;42058;52.308;20.924;2022-07-01T03:04:28;100491.83;;;23.13;100.00
56174;BME280;42058;52.308;20.924;2022-07-01T03:06:54;100495.59;;;23.11;100.00
56174;BME280;42058;52.308;20.924;2022-07-01T03:09:21;100493.05;;;23.09;100.00
56174;BME280;42058;52.308;20.924;2022-07-01T03:11:47;100493.05;;;23.09;100.00
56174;BME280;42058;52.308;20.924;2022-07-01T03:14:13;100489.14;;;23.08;100.00
56174;BME280;42058;52.308;20.924;2022-07-01T03:16:39;100490.09;;;23.07;100.00
56174;BME280;42058;52.308;20.924;2022-07-01T03:19:05;100493.63;;;23.07;100.00
56174;BME280;42058;52.308;20.924;2022-07-01T03:21:31;100495.73;;;23.09;100.00
56174;BME280;42058;52.308;20.924;2022-07-01T03:23:57;100498.27;;;23.11;100.00
56174;BME280;42058;52.308;20.924;2022-07-01T03:26:23;100491.94;;;23.12;100.00
56174;BME280;42058;52.308;20.924;2022-07-01T03:28:49;100489.49;;;23.14;100.00
56174;BME280;42058;52.308;20.924;2022-07-01T03:31:16;100482.66;;;23.16;100.00
56174;BME280;42058;52.308;20.924;2022-07-01T03:33:42;100479.38;;;23.18;100.00
56174;BME280;42058;52.308;20.924;2022-07-01T03:36:08;100472.05;;;23.14;100.00
56174;BME280;42058;52.308;20.924;2022-07-01T03:38:34;100482.44;;;23.19;100.00
56174;BME280;42058;52.308;20.924;2022-07-01T03:41:01;100476.22;;;23.18;100.00
56174;BME280;42058;52.308;20.924;2022-07-01T03:43:27;100481.94;;;23.19;100.00
56174;BME280;42058;52.308;20.924;2022-07-01T03:45:53;100476.56;;;23.19;100.00
56174;BME280;42058;52.308;20.924;2022-07-01T03:48:19;100475.95;;;23.21;100.00
56174;BME280;42058;52.308;20.924;2022-07-01T03:50:45;100470.36;;;23.25;100.00
56174;BME280;42058;52.308;20.924;2022-07-01T03:53:11;100466.21;;;23.26;100.00
56174;BME280;42058;52.308;20.924;2022-07-01T03:55:56;100473.53;;;23.30;100.00
56174;BME280;42058;52.308;20.924;2022-07-01T03:58:22;100466.59;;;23.33;100.00
56174;BME280;42058;52.308;20.924;2022-07-01T04:00:48;100466.32;;;23.36;100.00
56174;BME280;42058;52.308;20.924;2022-07-01T04:03:14;100475.11;;;23.38;100.00
56174;BME280;42058;52.308;20.924;2022-07-01T04:05:40;100471.81;;;23.40;100.00
56174;BME280;42058;52.308;20.924;2022-07-01T04:08:07;100472.56;;;23.42;100.00
56174;BME280;42058;52.308;20.924;2022-07-01T04:10:34;100469.88;;;23.42;100.00
56174;BME280;42058;52.308;20.924;2022-07-01T04:13:01;100471.34;;;23.46;100.00
56174;BME280;42058;52.308;20.924;2022-07-01T04:15:28;100468.41;;;23.49;100.00
56174;BME280;42058;52.308;20.924;2022-07-01T04:17:55;100476.93;;;23.54;100.00
56174;BME280;42058;52.308;20.924;2022-07-01T04:20:21;100470.59;;;23.61;100.00
56174;BME280;42058;52.308;20.924;2022-07-01T04:22:47;100468.88;;;23.66;100.00
56174;BME280;42058;52.308;20.924;2022-07-01T04:25:13;100462.28;;;23.70;100.00
56174;BME280;42058;52.308;20.924;2022-07-01T04:27:39;100461.42;;;23.75;100.00
56174;BME280;42058;52.308;20.924;2022-07-01T04:30:06;100460.09;;;23.81;100.00
56174;BME280;42058;52.308;20.924;2022-07-01T04:32:33;100456.67;;;23.84;100.00
56174;BME280;42058;52.308;20.924;2022-07-01T04:35:00;100451.89;;;23.88;100.00
56174;BME280;42058;52.308;20.924;2022-07-01T04:37:26;100453.69;;;23.93;100.00
56174;BME280;42058;52.308;20.924;2022-07-01T04:39:53;100451.98;;;23.97;100.00
56174;BME280;42058;52.308;20.924;2022-07-01T04:42:19;100447.43;;;24.04;100.00
56174;BME280;42058;52.308;20.924;2022-07-01T04:44:46;100452.66;;;24.11;100.00
56174;BME280;42058;52.308;20.924;2022-07-01T04:47:12;100450.67;;;24.18;100.00
56174;BME280;42058;52.308;20.924;2022-07-01T04:49:38;100448.71;;;24.26;100.00
56174;BME280;42058;52.308;20.924;2022-07-01T04:52:04;100444.87;;;24.34;100.00
56174;BME280;42058;52.308;20.924;2022-07-01T04:54:30;100432.98;;;24.43;100.00
56174;BME280;42058;52.308;20.924;2022-07-01T04:56:56;100428.80;;;24.50;100.00
56174;BME280;42058;52.308;20.924;2022-07-01T04:59:22;100434.39;;;24.58;100.00
56174;BME280;42058;52.308;20.924;2022-07-01T05:01:49;100430.19;;;24.65;100.00
56174;BME280;42058;52.308;20.924;2022-07-01T05:04:16;100435.78;;;24.73;100.00
56174;BME280;42058;52.308;20.924;2022-07-01T05:06:44;100438.30;;;24.81;100.00
56174;BME280;42058;52.308;20.924;2022-07-01T05:09:10;100432.59;;;24.89;100.00
56174;BME280;42058;52.308;20.924;2022-07-01T05:11:37;100434.36;;;25.00;100.00
56174;BME280;42058;52.308;20.924;2022-07-01T05:14:05;100438.30;;;25.11;100.00
56174;BME280;42058;52.308;20.924;2022-07-01T05:16:32;100438.50;;;25.20;100.00
56174;BME280;42058;52.308;20.924;2022-07-01T05:19:00;100441.75;;;25.29;100.00
56174;BME280;42058;52.308;20.924;2022-07-01T05:21:45;100432.35;;;25.39;100.00
56174;BME280;42058;52.308;20.924;2022-07-01T05:24:27;100434.73;;;25.47;100.00
56174;BME280;42058;52.308;20.924;2022-07-01T05:26:56;100438.31;;;25.58;100.00
56174;BME280;42058;52.308;20.924;2022-07-01T05:29:24;100429.03;;;25.66;100.00
56174;BME280;42058;52.308;20.924;2022-07-01T05:31:50;100431.39;;;25.75;100.00
56174;BME280;42058;52.308;20.924;2022-07-01T05:34:16;100425.88;;;25.86;100.00
56174;BME280;42058;52.308;20.924;2022-07-01T05:36:42;100421.73;;;25.97;100.00
56174;BME280;42058;52.308;20.924;2022-07-01T05:39:08;100420.09;;;26.10;100.00
56174;BME280;42058;52.308;20.924;2022-07-01T05:41:35;100421.16;;;26.23;100.00
56174;BME280;42058;52.308;20.924;2022-07-01T05:44:01;100422.73;;;26.35;99.60
56174;BME280;42058;52.308;20.924;2022-07-01T05:46:27;100417.68;;;26.46;98.56
56174;BME280;42058;52.308;20.924;2022-07-01T05:48:54;100415.97;;;26.55;97.88
56174;BME280;42058;52.308;20.924;2022-07-01T05:51:20;100423.09;;;26.65;97.31
56174;BME280;42058;52.308;20.924;2022-07-01T05:53:46;100416.30;;;26.75;97.37
56174;BME280;42058;52.308;20.924;2022-07-01T05:56:13;100419.33;;;26.86;97.85
56174;BME280;42058;52.308;20.924;2022-07-01T05:58:40;100421.85;;;26.97;97.71
56174;BME280;42058;52.308;20.924;2022-07-01T06:01:06;100420.82;;;27.08;96.26
56174;BME280;42058;52.308;20.924;2022-07-01T06:03:32;100420.77;;;27.18;95.78
56174;BME280;42058;52.308;20.924;2022-07-01T06:05:58;100413.52;;;27.28;95.69
56174;BME280;42058;52.308;20.924;2022-07-01T06:08:24;100417.52;;;27.38;95.61
56174;BME280;42058;52.308;20.924;2022-07-01T06:10:50;100414.78;;;27.48;94.26
56174;BME280;42058;52.308;20.924;2022-07-01T06:13:17;100420.33;;;27.60;94.96
56174;BME280;42058;52.308;20.924;2022-07-01T06:15:43;100421.95;;;27.71;94.02
56174;BME280;42058;52.308;20.924;2022-07-01T06:18:09;100416.13;;;27.79;92.42
56174;BME280;42058;52.308;20.924;2022-07-01T06:20:35;100409.17;;;27.91;93.11
56174;BME280;42058;52.308;20.924;2022-07-01T06:23:01;100412.16;;;28.02;91.50
56174;BME280;42058;52.308;20.924;2022-07-01T06:25:28;100410.56;;;28.13;89.92
56174;BME280;42058;52.308;20.924;2022-07-01T06:27:54;100413.89;;;28.25;91.50
56174;BME280;42058;52.308;20.924;2022-07-01T06:30:20;100404.17;;;28.36;91.81
56174;BME280;42058;52.308;20.924;2022-07-01T06:32:46;100404.27;;;28.48;89.92
56174;BME280;42058;52.308;20.924;2022-07-01T06:35:12;100409.30;;;28.61;89.34
56174;BME280;42058;52.308;20.924;2022-07-01T06:37:38;100402.42;;;28.71;87.83
56174;BME280;42058;52.308;20.924;2022-07-01T06:40:07;100404.02;;;28.82;87.29
56174;BME280;42058;52.308;20.924;2022-07-01T06:42:33;100402.23;;;28.94;88.48
56174;BME280;42058;52.308;20.924;2022-07-01T06:45:00;100407.41;;;29.10;87.90
56174;BME280;42058;52.308;20.924;2022-07-01T06:47:26;100404.76;;;29.22;86.77
56174;BME280;42058;52.308;20.924;2022-07-01T06:49:53;100405.50;;;29.37;85.87
56174;BME280;42058;52.308;20.924;2022-07-01T06:52:19;100404.36;;;29.51;86.61
56174;BME280;42058;52.308;20.924;2022-07-01T06:54:47;100405.95;;;29.66;85.48
56174;BME280;42058;52.308;20.924;2022-07-01T06:57:13;100404.98;;;29.80;83.29
56174;BME280;42058;52.308;20.924;2022-07-01T06:59:39;100405.34;;;29.93;84.10
56174;BME280;42058;52.308;20.924;2022-07-01T07:02:07;100397.38;;;30.08;84.21
56174;BME280;42058;52.308;20.924;2022-07-01T07:04:34;100397.23;;;30.18;83.92
56174;BME280;42058;52.308;20.924;2022-07-01T07:07:02;100403.70;;;30.41;83.09
56174;BME280;42058;52.308;20.924;2022-07-01T07:09:29;100396.88;;;30.54;81.89
56174;BME280;42058;52.308;20.924;2022-07-01T07:11:55;100395.50;;;30.70;82.60
56174;BME280;42058;52.308;20.924;2022-07-01T07:14:21;100398.03;;;30.84;79.27
56174;BME280;42058;52.308;20.924;2022-07-01T07:16:47;100397.52;;;30.97;78.18
56174;BME280;42058;52.308;20.924;2022-07-01T07:19:13;100398.47;;;31.12;79.64
56174;BME280;42058;52.308;20.924;2022-07-01T07:21:39;100398.08;;;31.28;77.77
56174;BME280;42058;52.308;20.924;2022-07-01T07:24:06;100401.73;;;31.43;79.89
56174;BME280;42058;52.308;20.924;2022-07-01T07:26:32;100398.64;;;31.58;78.14
56174;BME280;42058;52.308;20.924;2022-07-01T07:28:58;100401.61;;;31.72;74.41
56174;BME280;42058;52.308;20.924;2022-07-01T07:31:35;100397.45;;;31.84;72.96
56174;BME280;42058;52.308;20.924;2022-07-01T07:34:00;100391.94;;;31.96;74.54
56174;BME280;42058;52.308;20.924;2022-07-01T07:36:27;100390.14;;;32.12;74.51
56174;BME280;42058;52.308;20.924;2022-07-01T07:38:53;100386.93;;;32.27;74.40
56174;BME280;42058;52.308;20.924;2022-07-01T07:41:19;100382.74;;;32.40;73.17
56174;BME280;42058;52.308;20.924;2022-07-01T07:43:47;100380.70;;;32.56;72.54
56174;BME280;42058;52.308;20.924;2022-07-01T07:46:15;100383.50;;;32.71;70.85
56174;BME280;42058;52.308;20.924;2022-07-01T07:48:41;100391.48;;;32.88;70.07
56174;BME280;42058;52.308;20.924;2022-07-01T07:51:11;100386.40;;;33.00;67.03
56174;BME280;42058;52.308;20.924;2022-07-01T07:53:39;100385.23;;;33.13;68.89
56174;BME280;42058;52.308;20.924;2022-07-01T07:56:06;100379.45;;;33.27;68.10
56174;BME280;42058;52.308;20.924;2022-07-01T07:58:32;100377.22;;;33.41;67.96
56174;BME280;42058;52.308;20.924;2022-07-01T08:00:58;100380.61;;;33.54;66.09
56174;BME280;42058;52.308;20.924;2022-07-01T08:03:25;100380.66;;;33.65;64.83
56174;BME280;42058;52.308;20.924;2022-07-01T08:05:51;100376.05;;;33.76;64.14
56174;BME280;42058;52.308;20.924;2022-07-01T08:08:18;100373.98;;;33.89;64.04
56174;BME280;42058;52.308;20.924;2022-07-01T08:10:44;100372.73;;;34.02;62.49
56174;BME280;42058;52.308;20.924;2022-07-01T08:13:10;100373.78;;;34.12;59.75
56174;BME280;42058;52.308;20.924;2022-07-01T08:15:38;100374.64;;;34.23;60.37
56174;BME280;42058;52.308;20.924;2022-07-01T08:18:05;100372.52;;;34.47;59.35
56174;BME280;42058;52.308;20.924;2022-07-01T08:20:31;100372.52;;;34.47;59.35
56174;BME280;42058;52.308;20.924;2022-07-01T08:22:57;100378.90;;;34.61;60.60
56174;BME280;42058;52.308;20.924;2022-07-01T08:25:24;100382.41;;;34.76;59.04
56174;BME280;42058;52.308;20.924;2022-07-01T08:27:50;100381.65;;;34.89;58.20
56174;BME280;42058;52.308;20.924;2022-07-01T08:30:16;100388.02;;;35.03;57.91
56174;BME280;42058;52.308;20.924;2022-07-01T08:32:42;100379.36;;;35.17;58.12
56174;BME280;42058;52.308;20.924;2022-07-01T08:35:08;100389.02;;;35.30;56.99
56174;BME280;42058;52.308;20.924;2022-07-01T08:37:35;100384.35;;;35.41;54.57
56174;BME280;42058;52.308;20.924;2022-07-01T08:40:01;100387.86;;;35.53;53.44
56174;BME280;42058;52.308;20.924;2022-07-01T08:42:27;100383.14;;;35.64;52.60
56174;BME280;42058;52.308;20.924;2022-07-01T08:44:53;100377.42;;;35.76;53.97
56174;BME280;42058;52.308;20.924;2022-07-01T08:47:20;100374.36;;;35.89;53.35
56174;BME280;42058;52.308;20.924;2022-07-01T08:49:46;100370.50;;;36.01;51.69
56174;BME280;42058;52.308;20.924;2022-07-01T08:52:12;100369.23;;;36.10;50.29
56174;BME280;42058;52.308;20.924;2022-07-01T08:54:38;100369.91;;;36.18;49.04
56174;BME280;42058;52.308;20.924;2022-07-01T08:57:06;100369.59;;;36.24;48.74
56174;BME280;42058;52.308;20.924;2022-07-01T08:59:33;100368.53;;;36.32;48.07
56174;BME280;42058;52.308;20.924;2022-07-01T09:02:01;100362.84;;;36.40;48.79
56174;BME280;42058;52.308;20.924;2022-07-01T09:04:33;100363.56;;;36.51;48.80
56174;BME280;42058;52.308;20.924;2022-07-01T09:07:03;100367.23;;;36.61;48.56
56174;BME280;42058;52.308;20.924;2022-07-01T09:09:39;100354.17;;;36.70;48.06
56174;BME280;42058;52.308;20.924;2022-07-01T09:12:05;100361.43;;;36.80;48.27
56174;BME280;42058;52.308;20.924;2022-07-01T09:14:33;100348.42;;;36.91;48.72
56174;BME280;42058;52.308;20.924;2022-07-01T09:17:03;100352.28;;;37.00;45.57
56174;BME280;42058;52.308;20.924;2022-07-01T09:19:36;100358.28;;;37.06;46.03
56174;BME280;42058;52.308;20.924;2022-07-01T09:22:03;100350.34;;;37.13;45.57
56174;BME280;42058;52.308;20.924;2022-07-01T09:24:36;100353.72;;;37.22;45.23
56174;BME280;42058;52.308;20.924;2022-07-01T09:27:13;100346.91;;;37.31;45.82
56174;BME280;42058;52.308;20.924;2022-07-01T09:29:51;100351.84;;;37.39;44.12
56174;BME280;42058;52.308;20.924;2022-07-01T09:32:20;100347.47;;;37.40;43.95
56174;BME280;42058;52.308;20.924;2022-07-01T09:34:49;100348.53;;;37.46;44.40
56174;BME280;42058;52.308;20.924;2022-07-01T09:37:19;100344.56;;;37.51;42.98
56174;BME280;42058;52.308;20.924;2022-07-01T09:39:49;100345.43;;;37.51;42.70
56174;BME280;42058;52.308;20.924;2022-07-01T09:42:21;100335.90;;;37.54;43.14
56174;BME280;42058;52.308;20.924;2022-07-01T09:44:55;100329.52;;;37.60;41.51
56174;BME280;42058;52.308;20.924;2022-07-01T09:47:32;100335.76;;;37.65;41.65
56174;BME280;42058;52.308;20.924;2022-07-01T09:50:02;100336.30;;;37.64;41.91
56174;BME280;42058;52.308;20.924;2022-07-01T09:52:29;100345.84;;;37.71;41.73
56174;BME280;42058;52.308;20.924;2022-07-01T09:54:55;100336.63;;;37.75;41.17
56174;BME280;42058;52.308;20.924;2022-07-01T09:57:22;100341.69;;;37.78;40.92
56174;BME280;42058;52.308;20.924;2022-07-01T09:59:49;100342.84;;;37.79;40.80
56174;BME280;42058;52.308;20.924;2022-07-01T10:02:20;100339.41;;;37.84;41.22
56174;BME280;42058;52.308;20.924;2022-07-01T10:04:51;100345.08;;;37.89;41.25
56174;BME280;42058;52.308;20.924;2022-07-01T10:13:26;100347.83;;;37.89;38.88
56174;BME280;42058;52.308;20.924;2022-07-01T10:15:57;100348.52;;;37.84;38.14
56174;BME280;42058;52.308;20.924;2022-07-01T10:18:25;100344.58;;;37.74;38.58
56174;BME280;42058;52.308;20.924;2022-07-01T10:20:53;100353.79;;;37.70;39.52
56174;BME280;42058;52.308;20.924;2022-07-01T10:23:22;100344.47;;;37.71;39.84
56174;BME280;42058;52.308;20.924;2022-07-01T10:25:51;100343.20;;;37.74;39.70
56174;BME280;42058;52.308;20.924;2022-07-01T10:28:27;100344.76;;;37.79;40.42
56174;BME280;42058;52.308;20.924;2022-07-01T10:31:03;100343.53;;;37.84;40.41
56174;BME280;42058;52.308;20.924;2022-07-01T10:33:45;100343.71;;;37.89;40.19
56174;BME280;42058;52.308;20.924;2022-07-01T10:44:12;100334.89;;;37.96;39.11
56174;BME280;42058;52.308;20.924;2022-07-01T10:49:20;100327.58;;;37.99;38.87
56174;BME280;42058;52.308;20.924;2022-07-01T10:52:11;100319.02;;;37.98;38.95
56174;BME280;42058;52.308;20.924;2022-07-01T10:57:27;100316.27;;;37.98;38.35
56174;BME280;42058;52.308;20.924;2022-07-01T11:02:37;100313.09;;;38.01;38.42
56174;BME280;42058;52.308;20.924;2022-07-01T11:05:12;100314.07;;;37.98;37.86
56174;BME280;42058;52.308;20.924;2022-07-01T11:07:41;100299.80;;;37.98;38.41
56174;BME280;42058;52.308;20.924;2022-07-01T11:10:12;100302.64;;;38.01;38.19
56174;BME280;42058;52.308;20.924;2022-07-01T11:12:41;100303.77;;;38.02;37.64
56174;BME280;42058;52.308;20.924;2022-07-01T11:15:10;100304.41;;;38.04;37.80
56174;BME280;42058;52.308;20.924;2022-07-01T11:17:46;100295.69;;;38.07;38.16
56174;BME280;42058;52.308;20.924;2022-07-01T11:20:13;100300.78;;;38.11;38.56
56174;BME280;42058;52.308;20.924;2022-07-01T11:22:40;100290.63;;;38.11;37.33
56174;BME280;42058;52.308;20.924;2022-07-01T11:25:09;100296.83;;;38.16;37.05
56174;BME280;42058;52.308;20.924;2022-07-01T11:27:38;100292.23;;;38.19;36.72
56174;BME280;42058;52.308;20.924;2022-07-01T11:30:07;100289.48;;;38.19;36.55
56174;BME280;42058;52.308;20.924;2022-07-01T11:32:39;100291.78;;;38.22;36.24
56174;BME280;42058;52.308;20.924;2022-07-01T11:35:15;100284.31;;;38.20;35.50
56174;BME280;42058;52.308;20.924;2022-07-01T11:38:07;100271.17;;;38.22;35.71
56174;BME280;42058;52.308;20.924;2022-07-01T11:40:53;100281.34;;;38.21;36.25
56174;BME280;42058;52.308;20.924;2022-07-01T11:43:23;100281.95;;;38.23;36.00
56174;BME280;42058;52.308;20.924;2022-07-01T11:45:52;100265.30;;;38.27;35.42
56174;BME280;42058;52.308;20.924;2022-07-01T11:48:34;100264.41;;;38.34;36.09
56174;BME280;42058;52.308;20.924;2022-07-01T11:51:08;100261.89;;;38.41;36.04
56174;BME280;42058;52.308;20.924;2022-07-01T11:53:42;100256.84;;;38.48;35.37
56174;BME280;42058;52.308;20.924;2022-07-01T11:56:20;100252.27;;;38.51;35.15
56174;BME280;42058;52.308;20.924;2022-07-01T11:58:51;100250.67;;;38.52;35.18
56174;BME280;42058;52.308;20.924;2022-07-01T12:01:32;100262.18;;;38.52;35.36
56174;BME280;42058;52.308;20.924;2022-07-01T12:04:01;100250.45;;;38.54;34.91
56174;BME280;42058;52.308;20.924;2022-07-01T12:06:30;100250.47;;;38.63;35.58
56174;BME280;42058;52.308;20.924;2022-07-01T12:08:56;100249.53;;;38.69;35.55
56174;BME280;42058;52.308;20.924;2022-07-01T12:11:25;100249.98;;;38.75;34.73
56174;BME280;42058;52.308;20.924;2022-07-01T12:13:53;100253.11;;;38.79;35.00
56174;BME280;42058;52.308;20.924;2022-07-01T12:16:23;100250.50;;;38.84;34.73
56174;BME280;42058;52.308;20.924;2022-07-01T12:18:59;100243.84;;;38.92;34.85
56174;BME280;42058;52.308;20.924;2022-07-01T12:21:28;100245.59;;;38.95;34.53
56174;BME280;42058;52.308;20.924;2022-07-01T12:24:10;100240.95;;;39.05;35.16
56174;BME280;42058;52.308;20.924;2022-07-01T12:26:48;100244.68;;;39.11;35.60
56174;BME280;42058;52.308;20.924;2022-07-01T12:29:22;100245.20;;;39.19;35.17
56174;BME280;42058;52.308;20.924;2022-07-01T12:31:58;100245.80;;;39.21;34.31
56174;BME280;42058;52.308;20.924;2022-07-01T12:37:27;100238.88;;;39.31;34.11
56174;BME280;42058;52.308;20.924;2022-07-01T12:40:19;100247.38;;;39.41;34.02
56174;BME280;42058;52.308;20.924;2022-07-01T12:42:55;100237.37;;;39.47;32.91
56174;BME280;42058;52.308;20.924;2022-07-01T12:45:25;100213.45;;;39.47;32.75
56174;BME280;42058;52.308;20.924;2022-07-01T12:47:56;100225.02;;;39.58;32.51
56174;BME280;42058;52.308;20.924;2022-07-01T12:50:34;100225.43;;;39.65;32.82
56174;BME280;42058;52.308;20.924;2022-07-01T12:53:11;100219.45;;;39.68;33.18
56174;BME280;42058;52.308;20.924;2022-07-01T12:55:44;100215.14;;;39.72;32.86
56174;BME280;42058;52.308;20.924;2022-07-01T12:58:20;100216.96;;;39.78;33.71
56174;BME280;42058;52.308;20.924;2022-07-01T13:00:57;100211.86;;;39.84;33.78
56174;BME280;42058;52.308;20.924;2022-07-01T13:03:25;100208.68;;;39.90;33.58
56174;BME280;42058;52.308;20.924;2022-07-01T13:05:53;100207.69;;;39.93;32.72
56174;BME280;42058;52.308;20.924;2022-07-01T13:08:21;100224.63;;;40.00;33.56